sensor_id;sensor_type;location;lat;lon;timestamp;P1;durP1;ratioP1;P2;durP2;ratioP2
3791;SDS011;1911;53.768;11.474;2023-01-24T00:01:11;15.50;;;8.20;;
3791;SDS011;1911;53.768;11.474;2023-01-24T00:03:37;15.70;;;7.80;;
3791;SDS011;1911;53.768;11.474;2023-01-24T00:06:02;16.57;;;8.53;;
3791;SDS011;1911;53.768;11.474;2023-01-24T00:08:28;17.90;;;9.07;;
3791;SDS011;1911;53.768;11.474;2023-01-24T00:11:00;15.30;;;8.90;;
3791;SDS011;1911;53.768;11.474;2023-01-24T00:13:28;22.70;;;9.67;;
3791;SDS011;1911;53.768;11.474;2023-01-24T00:16:15;18.60;;;9.93;;
3791;SDS011;1911;53.768;11.474;2023-01-24T00:18:40;18.93;;;9.03;;
3791;SDS011;1911;53.768;11.474;2023-01-24T00:24:00;17.40;;;8.13;;
3791;SDS011;1911;53.768;11.474;2023-01-24T00:26:25;19.30;;;8.73;;
3791;SDS011;1911;53.768;11.474;2023-01-24T00:28:51;17.93;;;9.10;;
3791;SDS011;1911;53.768;11.474;2023-01-24T00:31:17;18.00;;;10.93;;
3791;SDS011;1911;53.768;11.474;2023-01-24T00:33:43;16.43;;;10.13;;
3791;SDS011;1911;53.768;11.474;2023-01-24T00:36:09;19.03;;;9.80;;
3791;SDS011;1911;53.768;11.474;2023-01-24T00:38:35;21.40;;;9.70;;
3791;SDS011;1911;53.768;11.474;2023-01-24T00:41:00;18.90;;;9.03;;
3791;SDS011;1911;53.768;11.474;2023-01-24T00:43:26;18.10;;;10.30;;
3791;SDS011;1911;53.768;11.474;2023-01-24T00:45:53;16.40;;;10.10;;
3791;SDS011;1911;53.768;11.474;2023-01-24T00:48:19;22.33;;;10.00;;
3791;SDS011;1911;53.768;11.474;2023-01-24T00:50:45;18.00;;;9.77;;
3791;SDS011;1911;53.768;11.474;2023-01-24T00:53:11;23.63;;;9.80;;
3791;SDS011;1911;53.768;11.474;2023-01-24T00:55:40;17.77;;;10.10;;
3791;SDS011;1911;53.768;11.474;2023-01-24T00:58:07;14.43;;;8.93;;
3791;SDS011;1911;53.768;11.474;2023-01-24T01:00:33;14.93;;;9.37;;
3791;SDS011;1911;53.768;11.474;2023-01-24T01:02:59;13.80;;;8.23;;
3791;SDS011;1911;53.768;11.474;2023-01-24T01:05:25;21.20;;;9.60;;
3791;SDS011;1911;53.768;11.474;2023-01-24T01:07:50;18.33;;;11.37;;
3791;SDS011;1911;53.768;11.474;2023-01-24T01:10:16;20.43;;;10.60;;
3791;SDS011;1911;53.768;11.474;2023-01-24T01:12:42;17.40;;;9.13;;
3791;SDS011;1911;53.768;11.474;2023-01-24T01:15:08;14.40;;;9.00;;
3791;SDS011;1911;53.768;11.474;2023-01-24T01:17:34;18.77;;;8.93;;
3791;SDS011;1911;53.768;11.474;2023-01-24T01:19:59;17.13;;;9.17;;
3791;SDS011;1911;53.768;11.474;2023-01-24T01:22:25;17.57;;;8.80;;
3791;SDS011;1911;53.768;11.474;2023-01-24T01:24:51;17.17;;;8.93;;
3791;SDS011;1911;53.768;11.474;2023-01-24T01:27:16;15.00;;;9.07;;
3791;SDS011;1911;53.768;11.474;2023-01-24T01:29:42;15.47;;;9.70;;
3791;SDS011;1911;53.768;11.474;2023-01-24T01:32:08;18.47;;;9.00;;
3791;SDS011;1911;53.768;11.474;2023-01-24T01:34:33;17.53;;;9.53;;
3791;SDS011;1911;53.768;11.474;2023-01-24T01:36:59;17.30;;;8.90;;
3791;SDS011;1911;53.768;11.474;2023-01-24T01:39:25;16.67;;;8.70;;
3791;SDS011;1911;53.768;11.474;2023-01-24T01:41:50;15.07;;;7.90;;
3791;SDS011;1911;53.768;11.474;2023-01-24T01:44:17;15.87;;;9.50;;
3791;SDS011;1911;53.768;11.474;2023-01-24T01:47:10;18.10;;;9.20;;
3791;SDS011;1911;53.768;11.474;2023-01-24T01:49:45;13.90;;;8.43;;
3791;SDS011;1911;53.768;11.474;2023-01-24T01:52:15;16.53;;;9.07;;
3791;SDS011;1911;53.768;11.474;2023-01-24T01:54:41;16.77;;;8.53;;
3791;SDS011;1911;53.768;11.474;2023-01-24T01:57:14;14.47;;;8.20;;
3791;SDS011;1911;53.768;11.474;2023-01-24T01:59:51;17.87;;;9.07;;
3791;SDS011;1911;53.768;11.474;2023-01-24T02:02:22;15.00;;;8.17;;
3791;SDS011;1911;53.768;11.474;2023-01-24T02:04:55;15.48;;;8.35;;
3791;SDS011;1911;53.768;11.474;2023-01-24T02:07:32;20.80;;;10.17;;
3791;SDS011;1911;53.768;11.474;2023-01-24T02:10:06;15.97;;;8.47;;
3791;SDS011;1911;53.768;11.474;2023-01-24T02:12:33;15.67;;;9.00;;
3791;SDS011;1911;53.768;11.474;2023-01-24T02:15:04;19.40;;;8.73;;
3791;SDS011;1911;53.768;11.474;2023-01-24T02:17:52;20.10;;;8.90;;
3791;SDS011;1911;53.768;11.474;2023-01-24T02:28:23;14.30;;;8.10;;
3791;SDS011;1911;53.768;11.474;2023-01-24T02:30:49;17.47;;;9.23;;
3791;SDS011;1911;53.768;11.474;2023-01-24T02:33:16;17.40;;;9.37;;
3791;SDS011;1911;53.768;11.474;2023-01-24T02:35:43;15.47;;;9.37;;
3791;SDS011;1911;53.768;11.474;2023-01-24T02:38:23;13.67;;;8.10;;
3791;SDS011;1911;53.768;11.474;2023-01-24T02:40:53;15.47;;;8.10;;
3791;SDS011;1911;53.768;11.474;2023-01-24T02:43:31;14.93;;;8.40;;
3791;SDS011;1911;53.768;11.474;2023-01-24T02:46:01;14.70;;;8.17;;
3791;SDS011;1911;53.768;11.474;2023-01-24T02:48:28;16.70;;;8.57;;
3791;SDS011;1911;53.768;11.474;2023-01-24T02:50:53;15.03;;;8.63;;
3791;SDS011;1911;53.768;11.474;2023-01-24T02:53:38;14.27;;;7.87;;
3791;SDS011;1911;53.768;11.474;2023-01-24T02:56:06;15.27;;;8.37;;
3791;SDS011;1911;53.768;11.474;2023-01-24T02:58:52;12.53;;;7.13;;
3791;SDS011;1911;53.768;11.474;2023-01-24T03:01:19;15.73;;;7.60;;
3791;SDS011;1911;53.768;11.474;2023-01-24T03:03:47;14.93;;;8.20;;
3791;SDS011;1911;53.768;11.474;2023-01-24T03:06:14;12.80;;;7.63;;
3791;SDS011;1911;53.768;11.474;2023-01-24T03:08:41;12.90;;;7.37;;
3791;SDS011;1911;53.768;11.474;2023-01-24T03:11:07;13.23;;;7.33;;
3791;SDS011;1911;53.768;11.474;2023-01-24T03:13:34;11.63;;;7.43;;
3791;SDS011;1911;53.768;11.474;2023-01-24T03:16:19;9.67;;;6.13;;
3791;SDS011;1911;53.768;11.474;2023-01-24T03:19:04;10.90;;;6.23;;
3791;SDS011;1911;53.768;11.474;2023-01-24T03:21:49;9.85;;;6.05;;
3791;SDS011;1911;53.768;11.474;2023-01-24T03:24:33;11.90;;;7.03;;
3791;SDS011;1911;53.768;11.474;2023-01-24T03:27:18;15.60;;;7.93;;
3791;SDS011;1911;53.768;11.474;2023-01-24T03:30:03;15.10;;;7.50;;
3791;SDS011;1911;53.768;11.474;2023-01-24T03:32:49;15.50;;;7.80;;
3791;SDS011;1911;53.768;11.474;2023-01-24T03:35:33;9.85;;;6.38;;
3791;SDS011;1911;53.768;11.474;2023-01-24T03:37:59;12.27;;;7.60;;
3791;SDS011;1911;53.768;11.474;2023-01-24T03:40:44;9.60;;;6.40;;
3791;SDS011;1911;53.768;11.474;2023-01-24T03:43:09;14.77;;;7.30;;
3791;SDS011;1911;53.768;11.474;2023-01-24T03:45:36;9.93;;;6.80;;
3791;SDS011;1911;53.768;11.474;2023-01-24T03:48:04;13.17;;;6.83;;
3791;SDS011;1911;53.768;11.474;2023-01-24T03:50:37;11.55;;;6.60;;
3791;SDS011;1911;53.768;11.474;2023-01-24T03:53:25;12.10;;;6.97;;
3791;SDS011;1911;53.768;11.474;2023-01-24T03:55:53;10.67;;;6.20;;
3791;SDS011;1911;53.768;11.474;2023-01-24T03:58:20;11.73;;;7.10;;
3791;SDS011;1911;53.768;11.474;2023-01-24T04:00:47;12.68;;;7.85;;
3791;SDS011;1911;53.768;11.474;2023-01-24T04:03:12;10.13;;;6.88;;
3791;SDS011;1911;53.768;11.474;2023-01-24T04:05:38;9.67;;;6.77;;
3791;SDS011;1911;53.768;11.474;2023-01-24T04:08:04;11.53;;;7.23;;
3791;SDS011;1911;53.768;11.474;2023-01-24T04:10:30;7.93;;;6.10;;
3791;SDS011;1911;53.768;11.474;2023-01-24T04:12:56;9.90;;;6.30;;
3791;SDS011;1911;53.768;11.474;2023-01-24T04:15:26;12.53;;;6.93;;
3791;SDS011;1911;53.768;11.474;2023-01-24T04:17:54;10.67;;;6.20;;
3791;SDS011;1911;53.768;11.474;2023-01-24T04:20:24;11.07;;;6.00;;
3791;SDS011;1911;53.768;11.474;2023-01-24T04:22:51;11.77;;;6.73;;
3791;SDS011;1911;53.768;11.474;2023-01-24T04:25:17;11.10;;;7.10;;
3791;SDS011;1911;53.768;11.474;2023-01-24T04:27:42;8.10;;;5.60;;
3791;SDS011;1911;53.768;11.474;2023-01-24T04:30:09;7.13;;;6.05;;
3791;SDS011;1911;53.768;11.474;2023-01-24T04:32:36;11.23;;;6.30;;
3791;SDS011;1911;53.768;11.474;2023-01-24T04:35:02;14.83;;;6.93;;
3791;SDS011;1911;53.768;11.474;2023-01-24T04:37:29;12.25;;;7.90;;
3791;SDS011;1911;53.768;11.474;2023-01-24T04:39:55;14.93;;;7.93;;
3791;SDS011;1911;53.768;11.474;2023-01-24T04:42:21;12.13;;;6.87;;
3791;SDS011;1911;53.768;11.474;2023-01-24T04:44:47;15.03;;;8.67;;
3791;SDS011;1911;53.768;11.474;2023-01-24T04:47:13;14.63;;;7.40;;
3791;SDS011;1911;53.768;11.474;2023-01-24T04:49:39;11.90;;;6.03;;
3791;SDS011;1911;53.768;11.474;2023-01-24T04:52:07;12.13;;;7.50;;
3791;SDS011;1911;53.768;11.474;2023-01-24T04:54:37;12.38;;;7.22;;
3791;SDS011;1911;53.768;11.474;2023-01-24T04:57:03;10.65;;;7.03;;
3791;SDS011;1911;53.768;11.474;2023-01-24T04:59:29;13.97;;;7.93;;
3791;SDS011;1911;53.768;11.474;2023-01-24T05:01:54;10.37;;;7.20;;
3791;SDS011;1911;53.768;11.474;2023-01-24T05:04:20;15.03;;;8.30;;
3791;SDS011;1911;53.768;11.474;2023-01-24T05:06:45;15.63;;;7.70;;
3791;SDS011;1911;53.768;11.474;2023-01-24T05:09:11;15.30;;;7.47;;
3791;SDS011;1911;53.768;11.474;2023-01-24T05:11:37;13.13;;;7.73;;
3791;SDS011;1911;53.768;11.474;2023-01-24T05:14:03;11.40;;;7.27;;
3791;SDS011;1911;53.768;11.474;2023-01-24T05:16:28;13.63;;;8.53;;
3791;SDS011;1911;53.768;11.474;2023-01-24T05:18:54;14.80;;;9.03;;
3791;SDS011;1911;53.768;11.474;2023-01-24T05:21:20;13.47;;;8.13;;
3791;SDS011;1911;53.768;11.474;2023-01-24T05:23:49;14.57;;;7.60;;
3791;SDS011;1911;53.768;11.474;2023-01-24T05:26:16;12.90;;;7.90;;
3791;SDS011;1911;53.768;11.474;2023-01-24T05:28:43;11.10;;;7.17;;
3791;SDS011;1911;53.768;11.474;2023-01-24T05:31:09;12.20;;;7.83;;
3791;SDS011;1911;53.768;11.474;2023-01-24T05:33:35;12.97;;;7.63;;
3791;SDS011;1911;53.768;11.474;2023-01-24T05:36:02;12.05;;;6.72;;
3791;SDS011;1911;53.768;11.474;2023-01-24T05:38:30;14.32;;;8.32;;
3791;SDS011;1911;53.768;11.474;2023-01-24T05:40:59;13.03;;;7.63;;
3791;SDS011;1911;53.768;11.474;2023-01-24T05:43:30;10.97;;;6.57;;
3791;SDS011;1911;53.768;11.474;2023-01-24T05:45:57;16.63;;;8.63;;
3791;SDS011;1911;53.768;11.474;2023-01-24T05:48:28;17.67;;;9.05;;
3791;SDS011;1911;53.768;11.474;2023-01-24T05:51:01;12.93;;;7.40;;
3791;SDS011;1911;53.768;11.474;2023-01-24T05:53:32;14.07;;;8.10;;
3791;SDS011;1911;53.768;11.474;2023-01-24T05:56:01;16.55;;;9.32;;
3791;SDS011;1911;53.768;11.474;2023-01-24T05:58:30;13.00;;;7.80;;
3791;SDS011;1911;53.768;11.474;2023-01-24T06:00:57;15.75;;;8.73;;
3791;SDS011;1911;53.768;11.474;2023-01-24T06:03:23;14.33;;;8.10;;
3791;SDS011;1911;53.768;11.474;2023-01-24T06:05:50;14.40;;;8.40;;
3791;SDS011;1911;53.768;11.474;2023-01-24T06:08:17;14.27;;;8.70;;
3791;SDS011;1911;53.768;11.474;2023-01-24T06:10:44;16.80;;;8.57;;
3791;SDS011;1911;53.768;11.474;2023-01-24T06:13:10;15.45;;;8.65;;
3791;SDS011;1911;53.768;11.474;2023-01-24T06:15:36;13.63;;;8.90;;
3791;SDS011;1911;53.768;11.474;2023-01-24T06:18:02;17.80;;;9.20;;
3791;SDS011;1911;53.768;11.474;2023-01-24T06:20:29;15.63;;;8.23;;
3791;SDS011;1911;53.768;11.474;2023-01-24T06:25:28;12.77;;;8.63;;
3791;SDS011;1911;53.768;11.474;2023-01-24T06:27:54;11.17;;;6.17;;
3791;SDS011;1911;53.768;11.474;2023-01-24T06:30:20;14.15;;;7.47;;
3791;SDS011;1911;53.768;11.474;2023-01-24T06:35:28;14.32;;;6.88;;
3791;SDS011;1911;53.768;11.474;2023-01-24T06:37:58;13.50;;;8.20;;
3791;SDS011;1911;53.768;11.474;2023-01-24T06:40:24;11.97;;;7.03;;
3791;SDS011;1911;53.768;11.474;2023-01-24T06:42:50;12.93;;;8.33;;
3791;SDS011;1911;53.768;11.474;2023-01-24T06:45:17;12.25;;;7.75;;
3791;SDS011;1911;53.768;11.474;2023-01-24T06:47:43;13.70;;;8.55;;
3791;SDS011;1911;53.768;11.474;2023-01-24T06:50:16;13.73;;;8.00;;
3791;SDS011;1911;53.768;11.474;2023-01-24T06:52:44;11.47;;;7.17;;
3791;SDS011;1911;53.768;11.474;2023-01-24T06:55:11;11.70;;;7.27;;
3791;SDS011;1911;53.768;11.474;2023-01-24T06:57:37;16.30;;;8.80;;
3791;SDS011;1911;53.768;11.474;2023-01-24T07:00:03;20.53;;;10.90;;
3791;SDS011;1911;53.768;11.474;2023-01-24T07:02:30;16.35;;;10.77;;
3791;SDS011;1911;53.768;11.474;2023-01-24T07:04:55;17.60;;;9.37;;
3791;SDS011;1911;53.768;11.474;2023-01-24T07:07:21;16.63;;;8.43;;
3791;SDS011;1911;53.768;11.474;2023-01-24T07:09:47;20.97;;;10.30;;
3791;SDS011;1911;53.768;11.474;2023-01-24T07:12:12;12.27;;;7.87;;
3791;SDS011;1911;53.768;11.474;2023-01-24T07:14:38;16.20;;;9.00;;
3791;SDS011;1911;53.768;11.474;2023-01-24T07:17:03;20.60;;;9.30;;
3791;SDS011;1911;53.768;11.474;2023-01-24T07:19:29;12.88;;;9.18;;
3791;SDS011;1911;53.768;11.474;2023-01-24T07:21:55;16.27;;;8.40;;
3791;SDS011;1911;53.768;11.474;2023-01-24T07:24:22;14.00;;;9.05;;
3791;SDS011;1911;53.768;11.474;2023-01-24T07:26:51;13.47;;;7.13;;
3791;SDS011;1911;53.768;11.474;2023-01-24T07:29:18;16.02;;;8.15;;
3791;SDS011;1911;53.768;11.474;2023-01-24T07:31:44;12.93;;;8.10;;
3791;SDS011;1911;53.768;11.474;2023-01-24T07:34:09;9.17;;;6.67;;
3791;SDS011;1911;53.768;11.474;2023-01-24T07:36:35;14.13;;;9.30;;
3791;SDS011;1911;53.768;11.474;2023-01-24T07:39:01;10.37;;;7.23;;
3791;SDS011;1911;53.768;11.474;2023-01-24T07:41:27;12.73;;;8.10;;
3791;SDS011;1911;53.768;11.474;2023-01-24T07:43:53;12.33;;;7.07;;
3791;SDS011;1911;53.768;11.474;2023-01-24T07:46:19;14.60;;;8.60;;
3791;SDS011;1911;53.768;11.474;2023-01-24T07:48:45;18.63;;;10.23;;
3791;SDS011;1911;53.768;11.474;2023-01-24T07:51:10;12.93;;;7.83;;
3791;SDS011;1911;53.768;11.474;2023-01-24T07:53:36;12.10;;;8.30;;
3791;SDS011;1911;53.768;11.474;2023-01-24T07:56:02;15.63;;;8.17;;
3791;SDS011;1911;53.768;11.474;2023-01-24T07:58:29;15.17;;;9.53;;
3791;SDS011;1911;53.768;11.474;2023-01-24T08:00:55;12.80;;;8.67;;
3791;SDS011;1911;53.768;11.474;2023-01-24T08:03:20;13.50;;;8.80;;
3791;SDS011;1911;53.768;11.474;2023-01-24T08:05:46;17.30;;;9.77;;
3791;SDS011;1911;53.768;11.474;2023-01-24T08:08:12;11.93;;;7.80;;
3791;SDS011;1911;53.768;11.474;2023-01-24T08:10:37;13.37;;;8.17;;
3791;SDS011;1911;53.768;11.474;2023-01-24T08:13:03;14.50;;;8.90;;
3791;SDS011;1911;53.768;11.474;2023-01-24T08:15:28;11.80;;;6.37;;
3791;SDS011;1911;53.768;11.474;2023-01-24T08:17:54;13.20;;;8.43;;
3791;SDS011;1911;53.768;11.474;2023-01-24T08:20:20;12.33;;;7.53;;
3791;SDS011;1911;53.768;11.474;2023-01-24T08:22:46;13.00;;;8.35;;
3791;SDS011;1911;53.768;11.474;2023-01-24T08:25:12;11.47;;;7.70;;
3791;SDS011;1911;53.768;11.474;2023-01-24T08:27:41;10.50;;;7.23;;
3791;SDS011;1911;53.768;11.474;2023-01-24T08:30:08;14.57;;;8.23;;
3791;SDS011;1911;53.768;11.474;2023-01-24T08:32:36;13.93;;;7.80;;
3791;SDS011;1911;53.768;11.474;2023-01-24T08:35:02;14.13;;;7.85;;
3791;SDS011;1911;53.768;11.474;2023-01-24T08:37:27;14.60;;;7.20;;
3791;SDS011;1911;53.768;11.474;2023-01-24T08:39:53;11.47;;;7.50;;
3791;SDS011;1911;53.768;11.474;2023-01-24T08:42:21;13.10;;;6.72;;
3791;SDS011;1911;53.768;11.474;2023-01-24T08:44:47;12.30;;;7.03;;
3791;SDS011;1911;53.768;11.474;2023-01-24T08:47:13;11.77;;;7.50;;
3791;SDS011;1911;53.768;11.474;2023-01-24T08:49:38;12.20;;;7.43;;
3791;SDS011;1911;53.768;11.474;2023-01-24T08:52:04;15.90;;;8.80;;
3791;SDS011;1911;53.768;11.474;2023-01-24T08:54:30;13.73;;;7.57;;
3791;SDS011;1911;53.768;11.474;2023-01-24T08:56:57;15.80;;;8.73;;
3791;SDS011;1911;53.768;11.474;2023-01-24T08:59:23;13.37;;;7.40;;
3791;SDS011;1911;53.768;11.474;2023-01-24T09:01:48;13.20;;;7.50;;
3791;SDS011;1911;53.768;11.474;2023-01-24T09:04:14;12.23;;;8.07;;
3791;SDS011;1911;53.768;11.474;2023-01-24T09:06:40;14.10;;;8.47;;
3791;SDS011;1911;53.768;11.474;2023-01-24T09:09:06;14.13;;;8.63;;
3791;SDS011;1911;53.768;11.474;2023-01-24T09:11:31;12.87;;;7.40;;
3791;SDS011;1911;53.768;11.474;2023-01-24T09:13:57;11.10;;;6.83;;
3791;SDS011;1911;53.768;11.474;2023-01-24T09:16:23;13.33;;;8.13;;
3791;SDS011;1911;53.768;11.474;2023-01-24T09:18:49;11.83;;;6.80;;
3791;SDS011;1911;53.768;11.474;2023-01-24T09:21:16;13.68;;;8.10;;
3791;SDS011;1911;53.768;11.474;2023-01-24T09:23:42;17.83;;;8.00;;
3791;SDS011;1911;53.768;11.474;2023-01-24T09:26:08;14.25;;;8.02;;
3791;SDS011;1911;53.768;11.474;2023-01-24T09:28:34;11.67;;;8.47;;
3791;SDS011;1911;53.768;11.474;2023-01-24T09:30:59;16.90;;;8.70;;
3791;SDS011;1911;53.768;11.474;2023-01-24T09:33:26;12.80;;;7.88;;
3791;SDS011;1911;53.768;11.474;2023-01-24T09:35:58;12.13;;;7.40;;
3791;SDS011;1911;53.768;11.474;2023-01-24T09:38:27;13.18;;;7.75;;
3791;SDS011;1911;53.768;11.474;2023-01-24T09:43:41;13.10;;;8.00;;
3791;SDS011;1911;53.768;11.474;2023-01-24T09:46:15;9.82;;;6.53;;
3791;SDS011;1911;53.768;11.474;2023-01-24T09:48:47;15.30;;;7.97;;
3791;SDS011;1911;53.768;11.474;2023-01-24T09:51:19;14.75;;;8.57;;
3791;SDS011;1911;53.768;11.474;2023-01-24T09:53:59;13.98;;;9.07;;
3791;SDS011;1911;53.768;11.474;2023-01-24T09:56:29;12.55;;;8.50;;
3791;SDS011;1911;53.768;11.474;2023-01-24T10:01:48;14.00;;;8.00;;
3791;SDS011;1911;53.768;11.474;2023-01-24T10:04:17;12.77;;;8.68;;
3791;SDS011;1911;53.768;11.474;2023-01-24T10:18:18;13.30;;;8.63;;
3791;SDS011;1911;53.768;11.474;2023-01-24T10:21:15;11.05;;;7.38;;
3791;SDS011;1911;53.768;11.474;2023-01-24T10:23:52;12.27;;;7.00;;
3791;SDS011;1911;53.768;11.474;2023-01-24T10:26:32;14.63;;;8.63;;
3791;SDS011;1911;53.768;11.474;2023-01-24T10:29:22;13.90;;;8.93;;
3791;SDS011;1911;53.768;11.474;2023-01-24T10:34:40;13.43;;;8.27;;
3791;SDS011;1911;53.768;11.474;2023-01-24T10:39:38;15.75;;;9.15;;
3791;SDS011;1911;53.768;11.474;2023-01-24T10:42:46;16.45;;;8.52;;
3791;SDS011;1911;53.768;11.474;2023-01-24T10:44:55;14.77;;;8.60;;
3791;SDS011;1911;53.768;11.474;2023-01-24T10:50:16;18.13;;;8.70;;
3791;SDS011;1911;53.768;11.474;2023-01-24T10:52:43;17.73;;;10.27;;
3791;SDS011;1911;53.768;11.474;2023-01-24T10:57:55;17.58;;;9.30;;
3791;SDS011;1911;53.768;11.474;2023-01-24T11:00:34;19.30;;;9.77;;
3791;SDS011;1911;53.768;11.474;2023-01-24T11:03:16;17.23;;;9.80;;
3791;SDS011;1911;53.768;11.474;2023-01-24T11:05:49;19.70;;;9.80;;
3791;SDS011;1911;53.768;11.474;2023-01-24T11:08:25;14.98;;;8.45;;
3791;SDS011;1911;53.768;11.474;2023-01-24T11:10:58;17.80;;;10.73;;
3791;SDS011;1911;53.768;11.474;2023-01-24T11:13:34;16.88;;;9.75;;
3791;SDS011;1911;53.768;11.474;2023-01-24T11:16:05;17.65;;;11.02;;
3791;SDS011;1911;53.768;11.474;2023-01-24T11:18:45;17.15;;;9.13;;
3791;SDS011;1911;53.768;11.474;2023-01-24T11:21:23;16.65;;;8.77;;
3791;SDS011;1911;53.768;11.474;2023-01-24T11:26:31;19.40;;;9.98;;
3791;SDS011;1911;53.768;11.474;2023-01-24T11:29:04;21.33;;;9.75;;
3791;SDS011;1911;53.768;11.474;2023-01-24T11:48:57;18.63;;;9.82;;
3791;SDS011;1911;53.768;11.474;2023-01-24T12:05:23;17.52;;;9.90;;
3791;SDS011;1911;53.768;11.474;2023-01-24T12:08:32;16.05;;;9.23;;
3791;SDS011;1911;53.768;11.474;2023-01-24T12:11:00;14.52;;;9.50;;
3791;SDS011;1911;53.768;11.474;2023-01-24T12:13:46;17.52;;;9.48;;
3791;SDS011;1911;53.768;11.474;2023-01-24T12:21:21;16.15;;;9.32;;
3791;SDS011;1911;53.768;11.474;2023-01-24T12:26:26;15.15;;;8.23;;
3791;SDS011;1911;53.768;11.474;2023-01-24T12:31:38;17.92;;;8.40;;
3791;SDS011;1911;53.768;11.474;2023-01-24T12:37:20;15.70;;;8.60;;
3791;SDS011;1911;53.768;11.474;2023-01-24T12:51:09;15.85;;;9.07;;
3791;SDS011;1911;53.768;11.474;2023-01-24T12:56:19;15.55;;;9.05;;
3791;SDS011;1911;53.768;11.474;2023-01-24T12:58:48;16.90;;;9.85;;
3791;SDS011;1911;53.768;11.474;2023-01-24T13:53:56;17.48;;;8.80;;
3791;SDS011;1911;53.768;11.474;2023-01-24T13:56:25;16.60;;;9.20;;
3791;SDS011;1911;53.768;11.474;2023-01-24T13:58:51;16.23;;;9.40;;
3791;SDS011;1911;53.768;11.474;2023-01-24T14:01:18;19.70;;;9.93;;
3791;SDS011;1911;53.768;11.474;2023-01-24T14:03:53;18.13;;;9.10;;
3791;SDS011;1911;53.768;11.474;2023-01-24T14:06:20;17.10;;;8.38;;
3791;SDS011;1911;53.768;11.474;2023-01-24T14:09:33;19.42;;;9.55;;
3791;SDS011;1911;53.768;11.474;2023-01-24T14:11:40;13.90;;;8.50;;
3791;SDS011;1911;53.768;11.474;2023-01-24T14:14:35;16.38;;;9.82;;
3791;SDS011;1911;53.768;11.474;2023-01-24T14:20:42;24.00;;;11.45;;
3791;SDS011;1911;53.768;11.474;2023-01-24T14:23:14;17.60;;;9.32;;
3791;SDS011;1911;53.768;11.474;2023-01-24T14:25:47;19.48;;;10.13;;
3791;SDS011;1911;53.768;11.474;2023-01-24T14:28:24;16.10;;;8.93;;
3791;SDS011;1911;53.768;11.474;2023-01-24T14:37:07;16.60;;;8.73;;
3791;SDS011;1911;53.768;11.474;2023-01-24T14:39:35;18.38;;;10.23;;
3791;SDS011;1911;53.768;11.474;2023-01-24T14:42:11;14.57;;;8.40;;
3791;SDS011;1911;53.768;11.474;2023-01-24T14:44:39;19.77;;;10.77;;
3791;SDS011;1911;53.768;11.474;2023-01-24T14:49:46;19.27;;;10.43;;
3791;SDS011;1911;53.768;11.474;2023-01-24T14:54:46;19.08;;;9.02;;
3791;SDS011;1911;53.768;11.474;2023-01-24T14:57:25;19.88;;;9.73;;
3791;SDS011;1911;53.768;11.474;2023-01-24T15:02:39;16.80;;;9.93;;
3791;SDS011;1911;53.768;11.474;2023-01-24T15:07:47;15.15;;;8.30;;
3791;SDS011;1911;53.768;11.474;2023-01-24T15:10:13;18.00;;;9.03;;
3791;SDS011;1911;53.768;11.474;2023-01-24T15:12:39;21.60;;;10.30;;
3791;SDS011;1911;53.768;11.474;2023-01-24T15:15:05;15.98;;;9.52;;
3791;SDS011;1911;53.768;11.474;2023-01-24T15:17:40;16.88;;;9.65;;
3791;SDS011;1911;53.768;11.474;2023-01-24T15:20:13;20.65;;;10.50;;
3791;SDS011;1911;53.768;11.474;2023-01-24T15:22:50;17.45;;;10.07;;
3791;SDS011;1911;53.768;11.474;2023-01-24T15:27:54;17.67;;;10.38;;
3791;SDS011;1911;53.768;11.474;2023-01-24T15:32:47;17.37;;;9.27;;
3791;SDS011;1911;53.768;11.474;2023-01-24T15:40:59;28.85;;;11.82;;
3791;SDS011;1911;53.768;11.474;2023-01-24T15:43:27;21.52;;;9.98;;
3791;SDS011;1911;53.768;11.474;2023-01-24T15:49:01;20.65;;;10.35;;
3791;SDS011;1911;53.768;11.474;2023-01-24T15:51:34;21.20;;;10.77;;
3791;SDS011;1911;53.768;11.474;2023-01-24T15:54:08;19.33;;;9.90;;
3791;SDS011;1911;53.768;11.474;2023-01-24T15:56:35;22.85;;;11.05;;
3791;SDS011;1911;53.768;11.474;2023-01-24T15:59:05;18.30;;;10.55;;
3791;SDS011;1911;53.768;11.474;2023-01-24T16:01:41;20.08;;;9.85;;
3791;SDS011;1911;53.768;11.474;2023-01-24T16:07:09;19.75;;;10.25;;
3791;SDS011;1911;53.768;11.474;2023-01-24T16:09:35;21.33;;;10.37;;
3791;SDS011;1911;53.768;11.474;2023-01-24T16:12:03;18.63;;;9.40;;
3791;SDS011;1911;53.768;11.474;2023-01-24T19:15:29;26.00;;;11.90;;
3791;SDS011;1911;53.768;11.474;2023-01-24T19:21:30;29.20;;;12.52;;
3791;SDS011;1911;53.768;11.474;2023-01-24T19:24:13;33.38;;;12.40;;
3791;SDS011;1911;53.768;11.474;2023-01-24T19:30:48;28.98;;;12.95;;
3791;SDS011;1911;53.768;11.474;2023-01-24T19:37:19;31.02;;;13.50;;
3791;SDS011;1911;53.768;11.474;2023-01-24T19:43:51;25.65;;;11.90;;
3791;SDS011;1911;53.768;11.474;2023-01-24T19:47:13;30.27;;;12.13;;
3791;SDS011;1911;53.768;11.474;2023-01-24T19:53:30;31.17;;;13.70;;
3791;SDS011;1911;53.768;11.474;2023-01-24T20:09:49;33.00;;;12.95;;
3791;SDS011;1911;53.768;11.474;2023-01-24T20:19:25;33.35;;;11.18;;
3791;SDS011;1911;53.768;11.474;2023-01-24T20:22:43;31.85;;;13.05;;
3791;SDS011;1911;53.768;11.474;2023-01-24T20:29:18;25.67;;;11.43;;
3791;SDS011;1911;53.768;11.474;2023-01-24T20:32:25;33.78;;;12.70;;
3791;SDS011;1911;53.768;11.474;2023-01-24T20:42:34;28.70;;;13.70;;
3791;SDS011;1911;53.768;11.474;2023-01-24T21:02:49;34.25;;;13.32;;
3791;SDS011;1911;53.768;11.474;2023-01-24T21:08:55;30.02;;;11.30;;
3791;SDS011;1911;53.768;11.474;2023-01-24T21:18:30;28.83;;;11.68;;
3791;SDS011;1911;53.768;11.474;2023-01-24T21:20:56;31.00;;;12.47;;
3791;SDS011;1911;53.768;11.474;2023-01-24T21:23:24;35.40;;;13.63;;
3791;SDS011;1911;53.768;11.474;2023-01-24T21:25:50;32.78;;;12.60;;
3791;SDS011;1911;53.768;11.474;2023-01-24T21:28:16;29.50;;;13.97;;
3791;SDS011;1911;53.768;11.474;2023-01-24T21:30:42;29.90;;;12.50;;
3791;SDS011;1911;53.768;11.474;2023-01-24T21:33:07;28.57;;;12.23;;
3791;SDS011;1911;53.768;11.474;2023-01-24T21:35:33;34.57;;;14.10;;
3791;SDS011;1911;53.768;11.474;2023-01-24T21:37:58;31.93;;;15.43;;
3791;SDS011;1911;53.768;11.474;2023-01-24T21:40:24;31.30;;;13.67;;
3791;SDS011;1911;53.768;11.474;2023-01-24T21:42:53;28.10;;;11.87;;
3791;SDS011;1911;53.768;11.474;2023-01-24T21:45:19;33.08;;;15.25;;
3791;SDS011;1911;53.768;11.474;2023-01-24T21:47:44;34.57;;;14.20;;
3791;SDS011;1911;53.768;11.474;2023-01-24T21:50:12;41.42;;;13.55;;
3791;SDS011;1911;53.768;11.474;2023-01-24T21:52:39;32.40;;;15.05;;
3791;SDS011;1911;53.768;11.474;2023-01-24T21:55:04;42.03;;;15.13;;
3791;SDS011;1911;53.768;11.474;2023-01-24T21:57:30;38.67;;;14.48;;
3791;SDS011;1911;53.768;11.474;2023-01-24T22:00:15;35.70;;;14.27;;
3791;SDS011;1911;53.768;11.474;2023-01-24T22:02:41;35.22;;;15.35;;
3791;SDS011;1911;53.768;11.474;2023-01-24T22:05:06;37.10;;;16.77;;
3791;SDS011;1911;53.768;11.474;2023-01-24T22:07:32;31.00;;;14.67;;
3791;SDS011;1911;53.768;11.474;2023-01-24T22:09:59;32.42;;;14.38;;
3791;SDS011;1911;53.768;11.474;2023-01-24T22:12:26;39.22;;;15.65;;
3791;SDS011;1911;53.768;11.474;2023-01-24T22:14:53;40.03;;;14.55;;
3791;SDS011;1911;53.768;11.474;2023-01-24T22:17:19;41.03;;;15.90;;
3791;SDS011;1911;53.768;11.474;2023-01-24T22:19:48;36.28;;;14.82;;
3791;SDS011;1911;53.768;11.474;2023-01-24T22:27:50;43.13;;;16.13;;
3791;SDS011;1911;53.768;11.474;2023-01-24T22:30:19;32.85;;;12.88;;
3791;SDS011;1911;53.768;11.474;2023-01-24T22:32:49;34.13;;;13.82;;
3791;SDS011;1911;53.768;11.474;2023-01-24T22:35:16;39.33;;;15.13;;
3791;SDS011;1911;53.768;11.474;2023-01-24T22:37:44;33.83;;;14.98;;
3791;SDS011;1911;53.768;11.474;2023-01-24T22:40:14;38.92;;;12.25;;
3791;SDS011;1911;53.768;11.474;2023-01-24T22:42:42;33.00;;;13.90;;